sensor_id;sensor_type;location;lat;lon;timestamp;P1;durP1;ratioP1;P2;durP2;ratioP2
8232;SDS011;4157;48.074;9.952;2023-06-26T00:02:06;9.95;;;7.18;;
8232;SDS011;4157;48.074;9.952;2023-06-26T00:04:34;9.27;;;7.32;;
8232;SDS011;4157;48.074;9.952;2023-06-26T00:07:03;10.10;;;7.97;;
8232;SDS011;4157;48.074;9.952;2023-06-26T00:09:30;10.10;;;7.38;;
8232;SDS011;4157;48.074;9.952;2023-06-26T00:11:58;10.15;;;7.63;;
8232;SDS011;4157;48.074;9.952;2023-06-26T00:14:26;10.15;;;7.03;;
8232;SDS011;4157;48.074;9.952;2023-06-26T00:16:55;10.45;;;7.50;;
8232;SDS011;4157;48.074;9.952;2023-06-26T00:19:23;10.88;;;7.45;;
8232;SDS011;4157;48.074;9.952;2023-06-26T00:21:50;9.18;;;7.05;;
8232;SDS011;4157;48.074;9.952;2023-06-26T00:24:18;9.35;;;7.25;;
8232;SDS011;4157;48.074;9.952;2023-06-26T00:26:46;12.02;;;7.32;;
8232;SDS011;4157;48.074;9.952;2023-06-26T00:29:14;9.73;;;7.25;;
8232;SDS011;4157;48.074;9.952;2023-06-26T00:31:41;9.65;;;7.07;;
8232;SDS011;4157;48.074;9.952;2023-06-26T00:34:10;10.75;;;7.63;;
8232;SDS011;4157;48.074;9.952;2023-06-26T00:36:38;11.32;;;7.53;;
8232;SDS011;4157;48.074;9.952;2023-06-26T00:39:09;11.15;;;7.30;;
8232;SDS011;4157;48.074;9.952;2023-06-26T00:41:36;12.25;;;7.75;;
8232;SDS011;4157;48.074;9.952;2023-06-26T00:44:04;10.40;;;7.88;;
8232;SDS011;4157;48.074;9.952;2023-06-26T00:46:32;10.35;;;7.38;;
8232;SDS011;4157;48.074;9.952;2023-06-26T00:49:00;11.02;;;7.78;;
8232;SDS011;4157;48.074;9.952;2023-06-26T00:51:30;10.15;;;7.53;;
8232;SDS011;4157;48.074;9.952;2023-06-26T00:53:59;11.60;;;7.53;;
8232;SDS011;4157;48.074;9.952;2023-06-26T00:56:27;11.02;;;8.30;;
8232;SDS011;4157;48.074;9.952;2023-06-26T00:58:56;10.23;;;7.75;;
8232;SDS011;4157;48.074;9.952;2023-06-26T01:01:26;10.23;;;7.70;;
8232;SDS011;4157;48.074;9.952;2023-06-26T01:03:53;10.30;;;7.80;;
8232;SDS011;4157;48.074;9.952;2023-06-26T01:06:24;9.90;;;7.50;;
8232;SDS011;4157;48.074;9.952;2023-06-26T01:08:57;9.75;;;6.85;;
8232;SDS011;4157;48.074;9.952;2023-06-26T01:11:25;9.85;;;7.57;;
8232;SDS011;4157;48.074;9.952;2023-06-26T01:13:52;10.15;;;7.63;;
8232;SDS011;4157;48.074;9.952;2023-06-26T01:16:21;9.50;;;7.22;;
8232;SDS011;4157;48.074;9.952;2023-06-26T01:18:48;11.48;;;7.57;;
8232;SDS011;4157;48.074;9.952;2023-06-26T01:21:17;10.27;;;7.85;;
8232;SDS011;4157;48.074;9.952;2023-06-26T01:23:49;9.07;;;6.95;;
8232;SDS011;4157;48.074;9.952;2023-06-26T01:26:23;10.07;;;7.60;;
8232;SDS011;4157;48.074;9.952;2023-06-26T01:28:53;10.68;;;8.15;;
8232;SDS011;4157;48.074;9.952;2023-06-26T01:31:25;9.80;;;7.30;;
8232;SDS011;4157;48.074;9.952;2023-06-26T01:33:54;10.70;;;7.80;;
8232;SDS011;4157;48.074;9.952;2023-06-26T01:36:21;10.18;;;7.35;;
8232;SDS011;4157;48.074;9.952;2023-06-26T01:38:49;10.77;;;7.82;;
8232;SDS011;4157;48.074;9.952;2023-06-26T01:41:17;12.57;;;7.78;;
8232;SDS011;4157;48.074;9.952;2023-06-26T01:43:52;10.63;;;8.10;;
8232;SDS011;4157;48.074;9.952;2023-06-26T01:46:25;10.45;;;7.45;;
8232;SDS011;4157;48.074;9.952;2023-06-26T01:48:55;11.45;;;8.25;;
8232;SDS011;4157;48.074;9.952;2023-06-26T01:51:27;9.93;;;7.50;;
8232;SDS011;4157;48.074;9.952;2023-06-26T01:53:57;9.93;;;7.78;;
8232;SDS011;4157;48.074;9.952;2023-06-26T01:56:26;11.32;;;7.75;;
8232;SDS011;4157;48.074;9.952;2023-06-26T01:58:56;10.60;;;7.35;;
8232;SDS011;4157;48.074;9.952;2023-06-26T02:01:24;10.40;;;7.28;;
8232;SDS011;4157;48.074;9.952;2023-06-26T02:03:52;9.13;;;6.15;;
8232;SDS011;4157;48.074;9.952;2023-06-26T02:06:19;10.10;;;7.30;;
8232;SDS011;4157;48.074;9.952;2023-06-26T02:08:47;10.75;;;7.40;;
8232;SDS011;4157;48.074;9.952;2023-06-26T02:11:15;10.35;;;7.57;;
8232;SDS011;4157;48.074;9.952;2023-06-26T02:13:42;8.88;;;6.95;;
8232;SDS011;4157;48.074;9.952;2023-06-26T02:16:12;9.77;;;7.20;;
8232;SDS011;4157;48.074;9.952;2023-06-26T02:18:42;9.32;;;7.20;;
8232;SDS011;4157;48.074;9.952;2023-06-26T02:21:10;9.32;;;7.32;;
8232;SDS011;4157;48.074;9.952;2023-06-26T02:23:38;9.85;;;7.18;;
8232;SDS011;4157;48.074;9.952;2023-06-26T02:26:05;12.20;;;7.40;;
8232;SDS011;4157;48.074;9.952;2023-06-26T02:28:33;10.15;;;7.63;;
8232;SDS011;4157;48.074;9.952;2023-06-26T02:31:01;11.20;;;7.80;;
8232;SDS011;4157;48.074;9.952;2023-06-26T02:33:33;11.05;;;8.05;;
8232;SDS011;4157;48.074;9.952;2023-06-26T02:36:00;10.32;;;7.53;;
8232;SDS011;4157;48.074;9.952;2023-06-26T02:38:28;11.88;;;8.82;;
8232;SDS011;4157;48.074;9.952;2023-06-26T02:40:56;14.25;;;8.65;;
8232;SDS011;4157;48.074;9.952;2023-06-26T02:43:23;10.45;;;7.85;;
8232;SDS011;4157;48.074;9.952;2023-06-26T02:45:51;9.73;;;7.53;;
8232;SDS011;4157;48.074;9.952;2023-06-26T02:48:19;11.48;;;7.80;;
8232;SDS011;4157;48.074;9.952;2023-06-26T02:50:48;10.68;;;7.22;;
8232;SDS011;4157;48.074;9.952;2023-06-26T02:53:15;10.65;;;7.45;;
8232;SDS011;4157;48.074;9.952;2023-06-26T02:55:45;10.35;;;7.78;;
8232;SDS011;4157;48.074;9.952;2023-06-26T02:58:14;10.75;;;7.70;;
8232;SDS011;4157;48.074;9.952;2023-06-26T03:00:42;10.13;;;7.47;;
8232;SDS011;4157;48.074;9.952;2023-06-26T03:03:14;11.35;;;7.63;;
8232;SDS011;4157;48.074;9.952;2023-06-26T03:05:42;12.00;;;8.75;;
8232;SDS011;4157;48.074;9.952;2023-06-26T03:08:11;10.20;;;7.35;;
8232;SDS011;4157;48.074;9.952;2023-06-26T03:10:39;11.00;;;7.88;;
8232;SDS011;4157;48.074;9.952;2023-06-26T03:13:06;10.80;;;7.50;;
8232;SDS011;4157;48.074;9.952;2023-06-26T03:15:34;11.77;;;7.70;;
8232;SDS011;4157;48.074;9.952;2023-06-26T03:18:02;13.55;;;7.75;;
8232;SDS011;4157;48.074;9.952;2023-06-26T03:20:29;11.38;;;7.88;;
8232;SDS011;4157;48.074;9.952;2023-06-26T03:22:58;11.60;;;7.28;;
8232;SDS011;4157;48.074;9.952;2023-06-26T03:25:27;10.93;;;7.53;;
8232;SDS011;4157;48.074;9.952;2023-06-26T03:28:17;11.43;;;8.07;;
8232;SDS011;4157;48.074;9.952;2023-06-26T03:30:46;12.05;;;8.30;;
8232;SDS011;4157;48.074;9.952;2023-06-26T03:33:15;10.95;;;7.80;;
8232;SDS011;4157;48.074;9.952;2023-06-26T03:35:43;11.40;;;7.85;;
8232;SDS011;4157;48.074;9.952;2023-06-26T03:38:13;10.35;;;7.47;;
8232;SDS011;4157;48.074;9.952;2023-06-26T03:40:44;11.43;;;7.80;;
8232;SDS011;4157;48.074;9.952;2023-06-26T03:43:11;11.73;;;8.02;;
8232;SDS011;4157;48.074;9.952;2023-06-26T03:45:56;13.75;;;8.63;;
8232;SDS011;4157;48.074;9.952;2023-06-26T03:48:25;14.65;;;10.10;;
8232;SDS011;4157;48.074;9.952;2023-06-26T03:50:54;13.20;;;9.77;;
8232;SDS011;4157;48.074;9.952;2023-06-26T03:53:22;14.40;;;9.80;;
8232;SDS011;4157;48.074;9.952;2023-06-26T03:55:51;15.60;;;9.65;;
8232;SDS011;4157;48.074;9.952;2023-06-26T03:58:22;14.23;;;9.80;;
8232;SDS011;4157;48.074;9.952;2023-06-26T04:00:50;13.35;;;10.00;;
8232;SDS011;4157;48.074;9.952;2023-06-26T04:03:19;13.23;;;8.88;;
8232;SDS011;4157;48.074;9.952;2023-06-26T04:05:47;11.90;;;8.48;;
8232;SDS011;4157;48.074;9.952;2023-06-26T04:08:14;9.30;;;7.07;;
8232;SDS011;4157;48.074;9.952;2023-06-26T04:10:42;11.55;;;7.35;;
8232;SDS011;4157;48.074;9.952;2023-06-26T04:13:12;9.35;;;7.00;;
8232;SDS011;4157;48.074;9.952;2023-06-26T04:15:40;10.30;;;6.50;;
8232;SDS011;4157;48.074;9.952;2023-06-26T04:18:07;9.52;;;6.75;;
8232;SDS011;4157;48.074;9.952;2023-06-26T04:20:38;10.93;;;7.20;;
8232;SDS011;4157;48.074;9.952;2023-06-26T04:23:06;9.88;;;6.90;;
8232;SDS011;4157;48.074;9.952;2023-06-26T04:25:34;9.23;;;6.22;;
8232;SDS011;4157;48.074;9.952;2023-06-26T04:28:03;10.55;;;7.18;;
8232;SDS011;4157;48.074;9.952;2023-06-26T04:30:32;11.35;;;7.25;;
8232;SDS011;4157;48.074;9.952;2023-06-26T04:33:00;11.88;;;8.18;;
8232;SDS011;4157;48.074;9.952;2023-06-26T04:35:28;14.20;;;7.07;;
8232;SDS011;4157;48.074;9.952;2023-06-26T04:37:55;9.98;;;6.97;;
8232;SDS011;4157;48.074;9.952;2023-06-26T04:40:23;9.93;;;6.93;;
8232;SDS011;4157;48.074;9.952;2023-06-26T04:42:51;9.65;;;6.88;;
8232;SDS011;4157;48.074;9.952;2023-06-26T04:45:18;9.57;;;7.00;;
8232;SDS011;4157;48.074;9.952;2023-06-26T04:47:47;9.25;;;6.43;;
8232;SDS011;4157;48.074;9.952;2023-06-26T04:50:15;11.45;;;7.07;;
8232;SDS011;4157;48.074;9.952;2023-06-26T04:52:44;10.48;;;7.78;;
8232;SDS011;4157;48.074;9.952;2023-06-26T04:55:12;10.98;;;8.40;;
8232;SDS011;4157;48.074;9.952;2023-06-26T04:57:39;12.88;;;7.85;;
8232;SDS011;4157;48.074;9.952;2023-06-26T05:00:08;10.65;;;7.95;;
8232;SDS011;4157;48.074;9.952;2023-06-26T05:02:36;12.93;;;7.32;;
8232;SDS011;4157;48.074;9.952;2023-06-26T05:05:05;10.65;;;6.80;;
8232;SDS011;4157;48.074;9.952;2023-06-26T05:07:33;9.70;;;7.13;;
8232;SDS011;4157;48.074;9.952;2023-06-26T05:10:01;9.77;;;6.78;;
8232;SDS011;4157;48.074;9.952;2023-06-26T05:12:29;11.23;;;6.43;;
8232;SDS011;4157;48.074;9.952;2023-06-26T05:14:56;10.23;;;7.32;;
8232;SDS011;4157;48.074;9.952;2023-06-26T05:17:24;10.07;;;7.47;;
8232;SDS011;4157;48.074;9.952;2023-06-26T05:19:52;10.38;;;6.88;;
8232;SDS011;4157;48.074;9.952;2023-06-26T05:22:21;11.75;;;7.60;;
8232;SDS011;4157;48.074;9.952;2023-06-26T05:24:49;8.35;;;6.78;;
8232;SDS011;4157;48.074;9.952;2023-06-26T05:27:18;10.15;;;7.43;;
8232;SDS011;4157;48.074;9.952;2023-06-26T05:29:47;10.43;;;7.13;;
8232;SDS011;4157;48.074;9.952;2023-06-26T05:32:16;9.52;;;6.60;;
8232;SDS011;4157;48.074;9.952;2023-06-26T05:34:44;10.13;;;7.35;;
8232;SDS011;4157;48.074;9.952;2023-06-26T05:37:13;10.35;;;6.93;;
8232;SDS011;4157;48.074;9.952;2023-06-26T05:39:43;11.32;;;7.30;;
8232;SDS011;4157;48.074;9.952;2023-06-26T05:42:11;12.98;;;7.60;;
8232;SDS011;4157;48.074;9.952;2023-06-26T05:44:39;8.50;;;6.70;;
8232;SDS011;4157;48.074;9.952;2023-06-26T05:47:07;9.73;;;7.15;;
8232;SDS011;4157;48.074;9.952;2023-06-26T05:49:35;15.30;;;7.28;;
8232;SDS011;4157;48.074;9.952;2023-06-26T05:52:02;11.40;;;7.18;;
8232;SDS011;4157;48.074;9.952;2023-06-26T05:54:30;9.13;;;6.47;;
8232;SDS011;4157;48.074;9.952;2023-06-26T05:57:00;12.10;;;6.85;;
8232;SDS011;4157;48.074;9.952;2023-06-26T05:59:28;10.63;;;8.00;;
8232;SDS011;4157;48.074;9.952;2023-06-26T06:01:56;12.60;;;7.60;;
8232;SDS011;4157;48.074;9.952;2023-06-26T06:04:24;10.18;;;7.38;;
8232;SDS011;4157;48.074;9.952;2023-06-26T06:06:52;13.30;;;7.10;;
8232;SDS011;4157;48.074;9.952;2023-06-26T06:09:20;9.25;;;6.82;;
8232;SDS011;4157;48.074;9.952;2023-06-26T06:11:47;10.45;;;7.38;;
8232;SDS011;4157;48.074;9.952;2023-06-26T06:14:16;9.55;;;7.07;;
8232;SDS011;4157;48.074;9.952;2023-06-26T06:16:44;9.30;;;6.63;;
8232;SDS011;4157;48.074;9.952;2023-06-26T06:19:12;8.60;;;6.43;;
8232;SDS011;4157;48.074;9.952;2023-06-26T06:21:39;9.70;;;6.40;;
8232;SDS011;4157;48.074;9.952;2023-06-26T06:24:08;9.02;;;6.55;;
8232;SDS011;4157;48.074;9.952;2023-06-26T06:26:36;10.63;;;6.90;;
8232;SDS011;4157;48.074;9.952;2023-06-26T06:29:04;9.38;;;6.47;;
8232;SDS011;4157;48.074;9.952;2023-06-26T06:31:33;9.65;;;6.78;;
8232;SDS011;4157;48.074;9.952;2023-06-26T06:34:00;10.90;;;6.60;;
8232;SDS011;4157;48.074;9.952;2023-06-26T06:36:28;9.48;;;6.63;;
8232;SDS011;4157;48.074;9.952;2023-06-26T06:38:56;10.32;;;6.72;;
8232;SDS011;4157;48.074;9.952;2023-06-26T06:41:24;12.77;;;6.93;;
8232;SDS011;4157;48.074;9.952;2023-06-26T06:43:52;8.85;;;6.70;;
8232;SDS011;4157;48.074;9.952;2023-06-26T06:46:19;7.95;;;6.00;;
8232;SDS011;4157;48.074;9.952;2023-06-26T06:48:48;10.38;;;6.10;;
8232;SDS011;4157;48.074;9.952;2023-06-26T06:51:16;7.82;;;6.00;;
8232;SDS011;4157;48.074;9.952;2023-06-26T06:53:44;9.13;;;6.25;;
8232;SDS011;4157;48.074;9.952;2023-06-26T06:56:11;9.73;;;6.53;;
8232;SDS011;4157;48.074;9.952;2023-06-26T06:58:39;8.00;;;6.18;;
8232;SDS011;4157;48.074;9.952;2023-06-26T07:01:09;8.18;;;6.13;;
8232;SDS011;4157;48.074;9.952;2023-06-26T07:03:36;7.95;;;6.28;;
8232;SDS011;4157;48.074;9.952;2023-06-26T07:06:05;9.07;;;6.32;;
8232;SDS011;4157;48.074;9.952;2023-06-26T07:08:33;8.55;;;6.15;;
8232;SDS011;4157;48.074;9.952;2023-06-26T07:11:01;8.25;;;6.32;;
8232;SDS011;4157;48.074;9.952;2023-06-26T07:13:29;8.95;;;6.03;;
8232;SDS011;4157;48.074;9.952;2023-06-26T07:15:57;9.23;;;6.40;;
8232;SDS011;4157;48.074;9.952;2023-06-26T07:18:24;7.63;;;6.00;;
8232;SDS011;4157;48.074;9.952;2023-06-26T07:20:52;8.23;;;6.15;;
8232;SDS011;4157;48.074;9.952;2023-06-26T07:23:21;10.43;;;6.57;;
8232;SDS011;4157;48.074;9.952;2023-06-26T07:25:49;8.93;;;6.05;;
8232;SDS011;4157;48.074;9.952;2023-06-26T07:28:16;9.50;;;7.07;;
8232;SDS011;4157;48.074;9.952;2023-06-26T07:30:44;8.43;;;6.22;;
8232;SDS011;4157;48.074;9.952;2023-06-26T07:33:12;8.98;;;5.90;;
8232;SDS011;4157;48.074;9.952;2023-06-26T07:35:40;10.68;;;6.22;;
8232;SDS011;4157;48.074;9.952;2023-06-26T07:38:07;8.10;;;6.05;;
8232;SDS011;4157;48.074;9.952;2023-06-26T07:40:36;8.45;;;5.85;;
8232;SDS011;4157;48.074;9.952;2023-06-26T07:43:04;7.60;;;5.50;;
8232;SDS011;4157;48.074;9.952;2023-06-26T07:45:32;9.98;;;6.35;;
8232;SDS011;4157;48.074;9.952;2023-06-26T07:47:59;9.75;;;6.07;;
8232;SDS011;4157;48.074;9.952;2023-06-26T07:50:27;7.97;;;5.88;;
8232;SDS011;4157;48.074;9.952;2023-06-26T07:52:55;8.27;;;6.22;;
8232;SDS011;4157;48.074;9.952;2023-06-26T07:55:22;11.60;;;6.00;;
8232;SDS011;4157;48.074;9.952;2023-06-26T07:57:53;7.55;;;5.68;;
8232;SDS011;4157;48.074;9.952;2023-06-26T08:00:21;10.32;;;7.15;;
8232;SDS011;4157;48.074;9.952;2023-06-26T08:02:51;9.55;;;6.38;;
8232;SDS011;4157;48.074;9.952;2023-06-26T08:05:19;12.02;;;6.32;;
8232;SDS011;4157;48.074;9.952;2023-06-26T08:07:47;9.88;;;6.25;;
8232;SDS011;4157;48.074;9.952;2023-06-26T08:10:14;8.38;;;6.32;;
8232;SDS011;4157;48.074;9.952;2023-06-26T08:12:42;8.07;;;5.70;;
8232;SDS011;4157;48.074;9.952;2023-06-26T08:15:13;10.65;;;6.47;;
8232;SDS011;4157;48.074;9.952;2023-06-26T08:17:40;9.98;;;6.55;;
8232;SDS011;4157;48.074;9.952;2023-06-26T08:20:08;9.02;;;6.03;;
8232;SDS011;4157;48.074;9.952;2023-06-26T08:22:36;8.65;;;5.93;;
8232;SDS011;4157;48.074;9.952;2023-06-26T08:25:04;7.78;;;5.65;;
8232;SDS011;4157;48.074;9.952;2023-06-26T08:27:32;8.65;;;6.50;;
8232;SDS011;4157;48.074;9.952;2023-06-26T08:30:00;9.05;;;6.45;;
8232;SDS011;4157;48.074;9.952;2023-06-26T08:32:30;8.15;;;5.82;;
8232;SDS011;4157;48.074;9.952;2023-06-26T08:34:57;8.88;;;6.25;;
8232;SDS011;4157;48.074;9.952;2023-06-26T08:37:25;8.15;;;6.00;;
8232;SDS011;4157;48.074;9.952;2023-06-26T08:39:52;8.85;;;6.38;;
8232;SDS011;4157;48.074;9.952;2023-06-26T08:42:20;9.57;;;5.85;;
8232;SDS011;4157;48.074;9.952;2023-06-26T08:44:48;8.13;;;6.40;;
8232;SDS011;4157;48.074;9.952;2023-06-26T08:47:15;8.10;;;5.93;;
8232;SDS011;4157;48.074;9.952;2023-06-26T08:49:46;7.88;;;6.30;;
8232;SDS011;4157;48.074;9.952;2023-06-26T08:52:17;8.80;;;6.28;;
8232;SDS011;4157;48.074;9.952;2023-06-26T08:54:45;8.25;;;6.47;;
8232;SDS011;4157;48.074;9.952;2023-06-26T08:57:14;10.23;;;6.57;;
8232;SDS011;4157;48.074;9.952;2023-06-26T08:59:43;8.73;;;6.65;;
8232;SDS011;4157;48.074;9.952;2023-06-26T09:02:10;7.78;;;6.15;;
8232;SDS011;4157;48.074;9.952;2023-06-26T09:04:38;8.82;;;6.47;;
8232;SDS011;4157;48.074;9.952;2023-06-26T09:07:07;13.15;;;6.10;;
8232;SDS011;4157;48.074;9.952;2023-06-26T09:09:35;8.32;;;6.07;;
8232;SDS011;4157;48.074;9.952;2023-06-26T09:12:03;8.50;;;5.85;;
8232;SDS011;4157;48.074;9.952;2023-06-26T09:14:31;7.90;;;5.78;;
8232;SDS011;4157;48.074;9.952;2023-06-26T09:16:59;8.73;;;5.57;;
8232;SDS011;4157;48.074;9.952;2023-06-26T09:19:27;9.00;;;6.28;;
8232;SDS011;4157;48.074;9.952;2023-06-26T09:21:55;7.53;;;5.82;;
8232;SDS011;4157;48.074;9.952;2023-06-26T09:24:24;8.82;;;6.15;;
8232;SDS011;4157;48.074;9.952;2023-06-26T09:26:52;8.75;;;6.35;;
8232;SDS011;4157;48.074;9.952;2023-06-26T09:29:20;9.77;;;5.90;;
8232;SDS011;4157;48.074;9.952;2023-06-26T09:31:48;8.10;;;5.65;;
8232;SDS011;4157;48.074;9.952;2023-06-26T09:34:15;8.25;;;6.10;;
8232;SDS011;4157;48.074;9.952;2023-06-26T09:36:43;8.77;;;6.00;;
8232;SDS011;4157;48.074;9.952;2023-06-26T09:39:13;10.50;;;6.10;;
8232;SDS011;4157;48.074;9.952;2023-06-26T09:41:42;7.70;;;5.72;;
8232;SDS011;4157;48.074;9.952;2023-06-26T09:44:11;8.50;;;6.22;;
8232;SDS011;4157;48.074;9.952;2023-06-26T09:46:39;8.18;;;6.35;;
8232;SDS011;4157;48.074;9.952;2023-06-26T09:49:08;9.57;;;6.22;;
8232;SDS011;4157;48.074;9.952;2023-06-26T09:51:37;9.57;;;6.43;;
8232;SDS011;4157;48.074;9.952;2023-06-26T09:54:05;7.82;;;5.72;;
8232;SDS011;4157;48.074;9.952;2023-06-26T09:56:33;7.68;;;6.13;;
8232;SDS011;4157;48.074;9.952;2023-06-26T09:59:02;8.27;;;5.60;;
8232;SDS011;4157;48.074;9.952;2023-06-26T10:01:30;8.27;;;5.32;;
8232;SDS011;4157;48.074;9.952;2023-06-26T10:03:58;7.00;;;5.05;;
8232;SDS011;4157;48.074;9.952;2023-06-26T10:06:27;7.25;;;5.75;;
8232;SDS011;4157;48.074;9.952;2023-06-26T10:08:55;9.23;;;5.30;;
8232;SDS011;4157;48.074;9.952;2023-06-26T10:11:23;9.73;;;5.63;;
8232;SDS011;4157;48.074;9.952;2023-06-26T10:13:52;7.75;;;5.45;;
8232;SDS011;4157;48.074;9.952;2023-06-26T10:16:23;7.32;;;5.18;;
8232;SDS011;4157;48.074;9.952;2023-06-26T10:18:56;9.18;;;5.90;;
8232;SDS011;4157;48.074;9.952;2023-06-26T10:21:26;8.38;;;5.50;;
8232;SDS011;4157;48.074;9.952;2023-06-26T10:23:54;8.52;;;5.57;;
8232;SDS011;4157;48.074;9.952;2023-06-26T10:26:24;9.63;;;5.65;;
8232;SDS011;4157;48.074;9.952;2023-06-26T10:28:52;8.50;;;5.63;;
8232;SDS011;4157;48.074;9.952;2023-06-26T10:31:20;7.30;;;5.15;;
8232;SDS011;4157;48.074;9.952;2023-06-26T10:33:50;7.97;;;5.38;;
8232;SDS011;4157;48.074;9.952;2023-06-26T10:36:18;8.88;;;5.47;;
8232;SDS011;4157;48.074;9.952;2023-06-26T10:38:51;7.53;;;5.97;;
8232;SDS011;4157;48.074;9.952;2023-06-26T10:41:20;7.30;;;4.65;;
8232;SDS011;4157;48.074;9.952;2023-06-26T10:43:49;8.82;;;6.35;;
8232;SDS011;4157;48.074;9.952;2023-06-26T10:46:17;8.80;;;5.60;;
8232;SDS011;4157;48.074;9.952;2023-06-26T10:48:59;8.00;;;5.93;;
8232;SDS011;4157;48.074;9.952;2023-06-26T10:51:28;7.60;;;5.63;;
8232;SDS011;4157;48.074;9.952;2023-06-26T10:53:56;6.93;;;5.20;;
8232;SDS011;4157;48.074;9.952;2023-06-26T10:56:43;8.23;;;5.85;;
8232;SDS011;4157;48.074;9.952;2023-06-26T10:59:13;7.40;;;5.78;;
8232;SDS011;4157;48.074;9.952;2023-06-26T11:01:41;7.43;;;5.55;;
8232;SDS011;4157;48.074;9.952;2023-06-26T11:04:10;7.60;;;5.20;;
8232;SDS011;4157;48.074;9.952;2023-06-26T11:06:40;8.75;;;6.03;;
8232;SDS011;4157;48.074;9.952;2023-06-26T11:09:08;14.88;;;5.32;;
8232;SDS011;4157;48.074;9.952;2023-06-26T11:11:56;8.52;;;5.47;;
8232;SDS011;4157;48.074;9.952;2023-06-26T11:14:27;7.30;;;5.60;;
8232;SDS011;4157;48.074;9.952;2023-06-26T11:16:55;9.05;;;5.78;;
8232;SDS011;4157;48.074;9.952;2023-06-26T11:19:26;8.98;;;5.93;;
8232;SDS011;4157;48.074;9.952;2023-06-26T11:22:04;7.90;;;6.00;;
8232;SDS011;4157;48.074;9.952;2023-06-26T11:24:31;7.50;;;5.20;;
8232;SDS011;4157;48.074;9.952;2023-06-26T11:26:59;10.77;;;6.00;;
8232;SDS011;4157;48.074;9.952;2023-06-26T11:29:29;9.90;;;6.13;;
8232;SDS011;4157;48.074;9.952;2023-06-26T11:32:00;7.22;;;5.15;;
8232;SDS011;4157;48.074;9.952;2023-06-26T11:34:30;7.82;;;5.32;;
8232;SDS011;4157;48.074;9.952;2023-06-26T11:36:58;6.88;;;4.80;;
8232;SDS011;4157;48.074;9.952;2023-06-26T11:39:30;6.85;;;5.00;;
8232;SDS011;4157;48.074;9.952;2023-06-26T11:41:58;8.25;;;4.88;;
8232;SDS011;4157;48.074;9.952;2023-06-26T11:44:28;8.32;;;5.18;;
8232;SDS011;4157;48.074;9.952;2023-06-26T11:46:56;7.85;;;5.07;;
8232;SDS011;4157;48.074;9.952;2023-06-26T11:49:24;7.35;;;5.30;;
8232;SDS011;4157;48.074;9.952;2023-06-26T11:51:53;8.13;;;5.28;;
8232;SDS011;4157;48.074;9.952;2023-06-26T11:54:25;7.72;;;5.22;;
8232;SDS011;4157;48.074;9.952;2023-06-26T11:56:54;7.97;;;4.90;;
8232;SDS011;4157;48.074;9.952;2023-06-26T11:59:23;7.38;;;5.15;;
8232;SDS011;4157;48.074;9.952;2023-06-26T12:01:51;6.93;;;5.05;;
8232;SDS011;4157;48.074;9.952;2023-06-26T12:04:19;7.28;;;4.90;;
8232;SDS011;4157;48.074;9.952;2023-06-26T12:06:47;7.75;;;5.53;;
8232;SDS011;4157;48.074;9.952;2023-06-26T12:09:18;7.85;;;5.35;;
8232;SDS011;4157;48.074;9.952;2023-06-26T12:11:46;6.45;;;4.88;;
8232;SDS011;4157;48.074;9.952;2023-06-26T12:14:15;8.30;;;5.43;;
8232;SDS011;4157;48.074;9.952;2023-06-26T12:16:44;7.82;;;5.15;;
8232;SDS011;4157;48.074;9.952;2023-06-26T12:19:12;7.43;;;5.25;;
8232;SDS011;4157;48.074;9.952;2023-06-26T12:21:45;6.90;;;5.20;;
8232;SDS011;4157;48.074;9.952;2023-06-26T12:24:13;6.80;;;5.10;;
8232;SDS011;4157;48.074;9.952;2023-06-26T12:26:43;9.43;;;5.25;;
8232;SDS011;4157;48.074;9.952;2023-06-26T12:29:11;8.02;;;5.60;;
8232;SDS011;4157;48.074;9.952;2023-06-26T12:31:39;8.35;;;5.50;;
8232;SDS011;4157;48.074;9.952;2023-06-26T12:34:11;7.22;;;5.03;;
8232;SDS011;4157;48.074;9.952;2023-06-26T12:36:42;7.97;;;6.05;;
8232;SDS011;4157;48.074;9.952;2023-06-26T12:39:11;7.00;;;4.78;;
8232;SDS011;4157;48.074;9.952;2023-06-26T12:41:47;6.50;;;5.15;;
8232;SDS011;4157;48.074;9.952;2023-06-26T12:44:21;7.75;;;5.15;;
8232;SDS011;4157;48.074;9.952;2023-06-26T12:46:49;8.00;;;5.65;;
8232;SDS011;4157;48.074;9.952;2023-06-26T12:49:17;7.57;;;5.07;;
8232;SDS011;4157;48.074;9.952;2023-06-26T12:51:45;9.05;;;5.30;;
8232;SDS011;4157;48.074;9.952;2023-06-26T12:54:13;8.35;;;5.72;;
8232;SDS011;4157;48.074;9.952;2023-06-26T12:56:41;6.80;;;5.15;;
8232;SDS011;4157;48.074;9.952;2023-06-26T12:59:10;8.52;;;5.88;;
8232;SDS011;4157;48.074;9.952;2023-06-26T13:01:38;9.68;;;5.57;;
8232;SDS011;4157;48.074;9.952;2023-06-26T13:04:05;6.97;;;5.47;;
8232;SDS011;4157;48.074;9.952;2023-06-26T13:06:33;7.63;;;5.80;;
8232;SDS011;4157;48.074;9.952;2023-06-26T13:09:01;9.85;;;6.03;;
8232;SDS011;4157;48.074;9.952;2023-06-26T13:11:30;19.50;;;7.25;;
8232;SDS011;4157;48.074;9.952;2023-06-26T13:13:58;14.50;;;7.30;;
8232;SDS011;4157;48.074;9.952;2023-06-26T13:16:27;14.73;;;6.82;;
8232;SDS011;4157;48.074;9.952;2023-06-26T13:18:54;17.48;;;7.13;;
8232;SDS011;4157;48.074;9.952;2023-06-26T13:21:22;12.68;;;7.15;;
8232;SDS011;4157;48.074;9.952;2023-06-26T13:23:50;12.85;;;6.82;;
8232;SDS011;4157;48.074;9.952;2023-06-26T13:26:18;9.00;;;6.45;;
8232;SDS011;4157;48.074;9.952;2023-06-26T13:28:47;9.48;;;6.60;;
8232;SDS011;4157;48.074;9.952;2023-06-26T13:31:14;13.63;;;7.43;;
8232;SDS011;4157;48.074;9.952;2023-06-26T13:33:44;12.13;;;7.88;;
8232;SDS011;4157;48.074;9.952;2023-06-26T13:36:14;11.90;;;7.32;;
8232;SDS011;4157;48.074;9.952;2023-06-26T13:38:42;11.32;;;7.38;;
8232;SDS011;4157;48.074;9.952;2023-06-26T13:41:09;11.65;;;7.18;;
8232;SDS011;4157;48.074;9.952;2023-06-26T13:43:37;14.45;;;6.75;;
8232;SDS011;4157;48.074;9.952;2023-06-26T13:46:05;8.60;;;6.63;;
8232;SDS011;4157;48.074;9.952;2023-06-26T13:48:33;8.85;;;6.72;;
8232;SDS011;4157;48.074;9.952;2023-06-26T13:51:02;9.70;;;7.15;;
8232;SDS011;4157;48.074;9.952;2023-06-26T13:53:29;8.65;;;6.38;;
8232;SDS011;4157;48.074;9.952;2023-06-26T13:55:57;9.25;;;6.43;;
8232;SDS011;4157;48.074;9.952;2023-06-26T13:58:24;9.32;;;6.15;;
8232;SDS011;4157;48.074;9.952;2023-06-26T14:00:52;10.20;;;7.05;;
8232;SDS011;4157;48.074;9.952;2023-06-26T14:03:20;11.30;;;6.75;;
8232;SDS011;4157;48.074;9.952;2023-06-26T14:05:48;8.25;;;6.75;;
8232;SDS011;4157;48.074;9.952;2023-06-26T14:08:17;8.73;;;6.40;;
8232;SDS011;4157;48.074;9.952;2023-06-26T14:10:44;8.23;;;5.90;;
8232;SDS011;4157;48.074;9.952;2023-06-26T14:13:12;9.73;;;7.22;;
8232;SDS011;4157;48.074;9.952;2023-06-26T14:15:41;9.20;;;6.50;;
8232;SDS011;4157;48.074;9.952;2023-06-26T14:18:09;8.77;;;6.47;;
8232;SDS011;4157;48.074;9.952;2023-06-26T14:20:37;9.25;;;6.20;;
8232;SDS011;4157;48.074;9.952;2023-06-26T14:23:05;8.35;;;6.32;;
8232;SDS011;4157;48.074;9.952;2023-06-26T14:25:34;9.00;;;5.88;;
8232;SDS011;4157;48.074;9.952;2023-06-26T14:28:02;9.48;;;6.30;;
8232;SDS011;4157;48.074;9.952;2023-06-26T14:30:30;7.50;;;6.13;;
8232;SDS011;4157;48.074;9.952;2023-06-26T14:32:57;9.07;;;6.60;;
8232;SDS011;4157;48.074;9.952;2023-06-26T14:35:25;10.10;;;6.68;;
8232;SDS011;4157;48.074;9.952;2023-06-26T14:37:53;9.90;;;6.90;;
8232;SDS011;4157;48.074;9.952;2023-06-26T14:40:21;9.57;;;6.85;;
8232;SDS011;4157;48.074;9.952;2023-06-26T14:42:50;7.82;;;5.65;;
8232;SDS011;4157;48.074;9.952;2023-06-26T14:45:19;7.32;;;6.07;;
8232;SDS011;4157;48.074;9.952;2023-06-26T14:47:46;9.73;;;6.35;;
8232;SDS011;4157;48.074;9.952;2023-06-26T14:50:14;7.07;;;5.82;;
8232;SDS011;4157;48.074;9.952;2023-06-26T14:52:42;10.40;;;6.05;;
8232;SDS011;4157;48.074;9.952;2023-06-26T14:55:09;7.93;;;6.22;;
8232;SDS011;4157;48.074;9.952;2023-06-26T14:57:37;7.45;;;5.30;;
8232;SDS011;4157;48.074;9.952;2023-06-26T15:00:07;8.57;;;5.72;;
8232;SDS011;4157;48.074;9.952;2023-06-26T15:02:35;7.50;;;5.60;;
8232;SDS011;4157;48.074;9.952;2023-06-26T15:05:03;8.32;;;5.97;;
8232;SDS011;4157;48.074;9.952;2023-06-26T15:07:30;8.25;;;6.32;;
8232;SDS011;4157;48.074;9.952;2023-06-26T15:09:58;8.63;;;6.13;;
8232;SDS011;4157;48.074;9.952;2023-06-26T15:12:26;8.80;;;6.20;;
8232;SDS011;4157;48.074;9.952;2023-06-26T15:14:54;10.65;;;7.53;;
8232;SDS011;4157;48.074;9.952;2023-06-26T15:17:23;8.32;;;6.30;;
8232;SDS011;4157;48.074;9.952;2023-06-26T15:19:50;19.40;;;11.68;;